logo
Search for airport 
image banner adimage banner adimage banner ad
image banner ad

SKAK - Ataco

Located in , Colombia

ICAO - , IATA -

Data provided by Airmate  

General information

Coordinates: N3°35'1" W75°23'21"
Elevation is 1506 feet MSL.
Magnetic variation is -7° East
View others Airports in Tolima

Operational data

Special qualification required
Current time UTC:
Current local time:
Weather at : SKNV - Neiva-Benito Salas ( 71 km )
METAR: SKNV 231800Z 20015KT 170V250 9999 FEW045 SCT110 34/15 Q1014
View NOTAMs / SUP AIP / TFR affecting this airport [VIEW]
Communications frequencies: [VIEW]

Runways:

RWY identifierQFULength (ft)Width (ft)SurfaceLDA (ft)
23218°333643GRAS
0538°333643GRAS

Airport contact information

Address: Colombia

Satellite view of SKAK